sensor_id;sensor_type;location;lat;lon;timestamp;P1;durP1;ratioP1;P2;durP2;ratioP2
17259;SDS011;8746;49.230;9.220;2024-03-23T00:54:34;14.10;;;10.60;;
17259;SDS011;8746;49.230;9.220;2024-03-23T00:56:59;12.47;;;10.20;;
17259;SDS011;8746;49.230;9.220;2024-03-23T00:59:25;12.93;;;11.60;;
17259;SDS011;8746;49.230;9.220;2024-03-23T01:01:53;13.33;;;10.53;;
17259;SDS011;8746;49.230;9.220;2024-03-23T01:04:19;10.73;;;9.63;;
17259;SDS011;8746;49.230;9.220;2024-03-23T01:06:45;12.13;;;9.90;;
17259;SDS011;8746;49.230;9.220;2024-03-23T01:09:10;11.77;;;10.57;;
17259;SDS011;8746;49.230;9.220;2024-03-23T01:11:36;11.77;;;9.33;;
17259;SDS011;8746;49.230;9.220;2024-03-23T01:14:01;13.07;;;10.13;;
17259;SDS011;8746;49.230;9.220;2024-03-23T01:16:27;12.17;;;10.50;;
17259;SDS011;8746;49.230;9.220;2024-03-23T01:18:52;12.47;;;10.10;;
17259;SDS011;8746;49.230;9.220;2024-03-23T01:21:17;11.43;;;10.03;;
17259;SDS011;8746;49.230;9.220;2024-03-23T01:23:43;11.40;;;9.93;;
17259;SDS011;8746;49.230;9.220;2024-03-23T01:26:08;11.13;;;10.03;;
17259;SDS011;8746;49.230;9.220;2024-03-23T01:28:33;11.27;;;10.10;;
17259;SDS011;8746;49.230;9.220;2024-03-23T01:30:59;11.73;;;10.20;;
17259;SDS011;8746;49.230;9.220;2024-03-23T01:33:24;11.07;;;9.77;;
17259;SDS011;8746;49.230;9.220;2024-03-23T01:35:49;12.67;;;9.97;;
17259;SDS011;8746;49.230;9.220;2024-03-23T01:38:14;11.33;;;10.20;;
17259;SDS011;8746;49.230;9.220;2024-03-23T01:40:40;11.10;;;9.13;;
17259;SDS011;8746;49.230;9.220;2024-03-23T01:43:06;13.87;;;9.23;;
17259;SDS011;8746;49.230;9.220;2024-03-23T01:45:33;11.83;;;9.80;;
17259;SDS011;8746;49.230;9.220;2024-03-23T01:48:00;10.70;;;9.43;;
17259;SDS011;8746;49.230;9.220;2024-03-23T01:50:26;11.13;;;10.03;;
17259;SDS011;8746;49.230;9.220;2024-03-23T01:52:52;10.67;;;9.67;;
17259;SDS011;8746;49.230;9.220;2024-03-23T01:55:19;13.10;;;10.60;;
17259;SDS011;8746;49.230;9.220;2024-03-23T01:57:44;14.10;;;10.20;;
17259;SDS011;8746;49.230;9.220;2024-03-23T02:00:10;10.67;;;9.53;;
17259;SDS011;8746;49.230;9.220;2024-03-23T02:02:41;11.80;;;10.60;;
17259;SDS011;8746;49.230;9.220;2024-03-23T02:05:11;11.30;;;9.93;;
17259;SDS011;8746;49.230;9.220;2024-03-23T02:07:37;12.47;;;10.57;;
17259;SDS011;8746;49.230;9.220;2024-03-23T02:10:04;11.33;;;10.13;;
17259;SDS011;8746;49.230;9.220;2024-03-23T02:12:31;11.63;;;10.13;;
17259;SDS011;8746;49.230;9.220;2024-03-23T02:14:56;10.77;;;9.67;;
17259;SDS011;8746;49.230;9.220;2024-03-23T02:17:21;11.47;;;10.00;;
17259;SDS011;8746;49.230;9.220;2024-03-23T02:19:47;10.60;;;9.43;;
17259;SDS011;8746;49.230;9.220;2024-03-23T02:22:12;14.73;;;9.83;;
17259;SDS011;8746;49.230;9.220;2024-03-23T02:24:37;12.80;;;9.37;;
17259;SDS011;8746;49.230;9.220;2024-03-23T02:27:03;11.10;;;9.87;;
17259;SDS011;8746;49.230;9.220;2024-03-23T02:29:28;11.47;;;9.10;;
17259;SDS011;8746;49.230;9.220;2024-03-23T02:31:54;11.27;;;10.10;;
17259;SDS011;8746;49.230;9.220;2024-03-23T02:34:19;10.77;;;9.73;;
17259;SDS011;8746;49.230;9.220;2024-03-23T02:36:44;12.80;;;9.93;;
17259;SDS011;8746;49.230;9.220;2024-03-23T02:39:10;10.60;;;9.37;;
17259;SDS011;8746;49.230;9.220;2024-03-23T02:41:35;11.37;;;10.13;;
17259;SDS011;8746;49.230;9.220;2024-03-23T02:44:01;12.57;;;9.70;;
17259;SDS011;8746;49.230;9.220;2024-03-23T02:46:27;12.30;;;9.70;;
17259;SDS011;8746;49.230;9.220;2024-03-23T02:48:52;10.90;;;9.80;;
17259;SDS011;8746;49.230;9.220;2024-03-23T02:51:18;10.90;;;9.20;;
17259;SDS011;8746;49.230;9.220;2024-03-23T02:53:43;10.97;;;9.13;;
17259;SDS011;8746;49.230;9.220;2024-03-23T02:56:09;10.47;;;8.83;;
17259;SDS011;8746;49.230;9.220;2024-03-23T02:58:34;9.87;;;7.97;;
17259;SDS011;8746;49.230;9.220;2024-03-23T03:00:59;8.27;;;7.47;;
17259;SDS011;8746;49.230;9.220;2024-03-23T03:03:25;11.23;;;7.67;;
17259;SDS011;8746;49.230;9.220;2024-03-23T03:05:56;8.43;;;7.60;;
17259;SDS011;8746;49.230;9.220;2024-03-23T03:08:21;7.87;;;7.17;;
17259;SDS011;8746;49.230;9.220;2024-03-23T03:10:47;7.30;;;6.60;;
17259;SDS011;8746;49.230;9.220;2024-03-23T03:13:12;9.33;;;6.83;;
17259;SDS011;8746;49.230;9.220;2024-03-23T03:15:39;7.57;;;6.67;;
17259;SDS011;8746;49.230;9.220;2024-03-23T03:18:05;7.00;;;6.30;;
17259;SDS011;8746;49.230;9.220;2024-03-23T03:20:31;7.87;;;6.67;;
17259;SDS011;8746;49.230;9.220;2024-03-23T03:22:56;7.30;;;6.30;;
17259;SDS011;8746;49.230;9.220;2024-03-23T03:25:22;6.30;;;5.70;;
17259;SDS011;8746;49.230;9.220;2024-03-23T03:27:47;6.87;;;5.80;;
17259;SDS011;8746;49.230;9.220;2024-03-23T03:30:12;8.83;;;6.80;;
17259;SDS011;8746;49.230;9.220;2024-03-23T03:32:38;7.73;;;6.10;;
17259;SDS011;8746;49.230;9.220;2024-03-23T03:35:03;7.50;;;6.70;;
17259;SDS011;8746;49.230;9.220;2024-03-23T03:37:29;7.57;;;6.73;;
17259;SDS011;8746;49.230;9.220;2024-03-23T03:39:55;8.33;;;7.00;;
17259;SDS011;8746;49.230;9.220;2024-03-23T03:42:20;7.23;;;6.53;;
17259;SDS011;8746;49.230;9.220;2024-03-23T03:44:46;7.13;;;5.63;;
17259;SDS011;8746;49.230;9.220;2024-03-23T03:47:11;5.70;;;5.10;;
17259;SDS011;8746;49.230;9.220;2024-03-23T03:49:36;9.90;;;5.20;;
17259;SDS011;8746;49.230;9.220;2024-03-23T03:52:02;6.57;;;5.60;;
17259;SDS011;8746;49.230;9.220;2024-03-23T03:54:27;6.17;;;5.07;;
17259;SDS011;8746;49.230;9.220;2024-03-23T03:56:53;7.13;;;5.40;;
17259;SDS011;8746;49.230;9.220;2024-03-23T03:59:18;8.77;;;5.20;;
17259;SDS011;8746;49.230;9.220;2024-03-23T04:01:44;5.87;;;5.10;;
17259;SDS011;8746;49.230;9.220;2024-03-23T04:04:09;5.60;;;5.00;;
17259;SDS011;8746;49.230;9.220;2024-03-23T04:06:34;6.23;;;5.43;;
17259;SDS011;8746;49.230;9.220;2024-03-23T04:09:00;7.23;;;5.70;;
17259;SDS011;8746;49.230;9.220;2024-03-23T04:11:25;6.60;;;5.80;;
17259;SDS011;8746;49.230;9.220;2024-03-23T04:13:51;8.80;;;6.00;;
17259;SDS011;8746;49.230;9.220;2024-03-23T04:16:29;9.47;;;6.57;;
17259;SDS011;8746;49.230;9.220;2024-03-23T04:18:58;7.20;;;6.47;;
17259;SDS011;8746;49.230;9.220;2024-03-23T04:21:24;8.57;;;7.30;;
17259;SDS011;8746;49.230;9.220;2024-03-23T04:23:49;7.87;;;6.80;;
17259;SDS011;8746;49.230;9.220;2024-03-23T04:26:15;7.53;;;6.50;;
17259;SDS011;8746;49.230;9.220;2024-03-23T04:28:40;10.77;;;8.13;;
17259;SDS011;8746;49.230;9.220;2024-03-23T04:31:06;8.07;;;7.10;;
17259;SDS011;8746;49.230;9.220;2024-03-23T04:33:31;9.80;;;7.63;;
17259;SDS011;8746;49.230;9.220;2024-03-23T04:35:57;9.63;;;7.20;;
17259;SDS011;8746;49.230;9.220;2024-03-23T04:38:22;10.07;;;7.87;;
17259;SDS011;8746;49.230;9.220;2024-03-23T04:40:57;10.20;;;8.00;;
17259;SDS011;8746;49.230;9.220;2024-03-23T04:43:23;9.93;;;8.17;;
17259;SDS011;8746;49.230;9.220;2024-03-23T04:45:49;10.30;;;8.50;;
17259;SDS011;8746;49.230;9.220;2024-03-23T04:48:15;8.90;;;7.23;;
17259;SDS011;8746;49.230;9.220;2024-03-23T04:50:40;12.37;;;8.90;;
17259;SDS011;8746;49.230;9.220;2024-03-23T04:53:06;10.97;;;7.90;;
17259;SDS011;8746;49.230;9.220;2024-03-23T04:55:32;10.40;;;8.10;;
17259;SDS011;8746;49.230;9.220;2024-03-23T04:57:57;10.90;;;7.87;;
17259;SDS011;8746;49.230;9.220;2024-03-23T05:00:22;9.53;;;8.00;;
17259;SDS011;8746;49.230;9.220;2024-03-23T05:02:48;10.93;;;8.20;;
17259;SDS011;8746;49.230;9.220;2024-03-23T05:05:13;10.00;;;8.40;;
17259;SDS011;8746;49.230;9.220;2024-03-23T05:07:39;10.97;;;8.30;;
17259;SDS011;8746;49.230;9.220;2024-03-23T05:10:05;10.50;;;8.00;;
17259;SDS011;8746;49.230;9.220;2024-03-23T05:12:30;8.93;;;7.80;;
17259;SDS011;8746;49.230;9.220;2024-03-23T05:14:56;9.73;;;8.10;;
17259;SDS011;8746;49.230;9.220;2024-03-23T05:17:22;9.73;;;7.50;;
17259;SDS011;8746;49.230;9.220;2024-03-23T05:19:47;12.30;;;8.50;;
17259;SDS011;8746;49.230;9.220;2024-03-23T05:22:13;8.60;;;7.67;;
17259;SDS011;8746;49.230;9.220;2024-03-23T05:24:38;9.00;;;7.90;;
17259;SDS011;8746;49.230;9.220;2024-03-23T05:27:03;9.53;;;8.17;;
17259;SDS011;8746;49.230;9.220;2024-03-23T05:29:28;8.83;;;7.20;;
17259;SDS011;8746;49.230;9.220;2024-03-23T05:31:54;10.47;;;7.97;;
17259;SDS011;8746;49.230;9.220;2024-03-23T05:34:21;10.30;;;8.00;;
17259;SDS011;8746;49.230;9.220;2024-03-23T05:36:47;9.13;;;7.80;;
17259;SDS011;8746;49.230;9.220;2024-03-23T05:39:14;10.67;;;7.97;;
17259;SDS011;8746;49.230;9.220;2024-03-23T05:41:41;7.80;;;6.30;;
17259;SDS011;8746;49.230;9.220;2024-03-23T05:44:06;8.03;;;5.93;;
17259;SDS011;8746;49.230;9.220;2024-03-23T05:46:32;6.37;;;5.60;;
17259;SDS011;8746;49.230;9.220;2024-03-23T05:48:58;7.27;;;5.73;;
17259;SDS011;8746;49.230;9.220;2024-03-23T05:51:27;7.03;;;6.20;;
17259;SDS011;8746;49.230;9.220;2024-03-23T05:53:52;6.80;;;5.40;;
17259;SDS011;8746;49.230;9.220;2024-03-23T05:56:19;6.37;;;5.00;;
17259;SDS011;8746;49.230;9.220;2024-03-23T05:58:45;6.43;;;4.83;;
17259;SDS011;8746;49.230;9.220;2024-03-23T06:01:11;5.23;;;4.73;;
17259;SDS011;8746;49.230;9.220;2024-03-23T06:03:38;5.60;;;4.50;;
17259;SDS011;8746;49.230;9.220;2024-03-23T06:06:03;5.80;;;4.63;;
17259;SDS011;8746;49.230;9.220;2024-03-23T06:08:29;6.20;;;4.70;;
17259;SDS011;8746;49.230;9.220;2024-03-23T06:10:54;5.33;;;4.63;;
17259;SDS011;8746;49.230;9.220;2024-03-23T06:13:20;4.97;;;4.10;;
17259;SDS011;8746;49.230;9.220;2024-03-23T06:15:49;5.97;;;4.40;;
17259;SDS011;8746;49.230;9.220;2024-03-23T06:18:15;6.07;;;4.23;;
17259;SDS011;8746;49.230;9.220;2024-03-23T06:20:40;5.53;;;4.33;;
17259;SDS011;8746;49.230;9.220;2024-03-23T06:23:05;5.00;;;4.23;;
17259;SDS011;8746;49.230;9.220;2024-03-23T06:25:30;4.90;;;4.33;;
17259;SDS011;8746;49.230;9.220;2024-03-23T06:27:56;6.03;;;4.17;;
17259;SDS011;8746;49.230;9.220;2024-03-23T06:30:23;4.50;;;4.10;;
17259;SDS011;8746;49.230;9.220;2024-03-23T06:32:48;4.00;;;3.60;;
17259;SDS011;8746;49.230;9.220;2024-03-23T06:35:13;4.43;;;3.70;;
17259;SDS011;8746;49.230;9.220;2024-03-23T06:37:39;3.73;;;3.37;;
17259;SDS011;8746;49.230;9.220;2024-03-23T06:40:06;3.90;;;3.10;;
17259;SDS011;8746;49.230;9.220;2024-03-23T06:42:34;4.00;;;2.83;;
17259;SDS011;8746;49.230;9.220;2024-03-23T06:45:00;2.13;;;1.93;;
17259;SDS011;8746;49.230;9.220;2024-03-23T06:47:25;2.10;;;1.90;;
17259;SDS011;8746;49.230;9.220;2024-03-23T06:49:50;2.20;;;2.00;;
17259;SDS011;8746;49.230;9.220;2024-03-23T06:52:16;2.40;;;2.20;;
17259;SDS011;8746;49.230;9.220;2024-03-23T06:54:41;2.50;;;2.30;;
17259;SDS011;8746;49.230;9.220;2024-03-23T06:57:07;2.40;;;2.20;;
17259;SDS011;8746;49.230;9.220;2024-03-23T06:59:32;2.10;;;2.00;;
17259;SDS011;8746;49.230;9.220;2024-03-23T07:01:57;2.50;;;2.30;;
17259;SDS011;8746;49.230;9.220;2024-03-23T07:04:23;1.97;;;1.87;;
17259;SDS011;8746;49.230;9.220;2024-03-23T07:06:48;2.50;;;2.30;;
17259;SDS011;8746;49.230;9.220;2024-03-23T07:09:13;3.73;;;3.30;;
17259;SDS011;8746;49.230;9.220;2024-03-23T07:11:39;2.70;;;2.50;;
17259;SDS011;8746;49.230;9.220;2024-03-23T07:14:04;3.33;;;3.10;;
17259;SDS011;8746;49.230;9.220;2024-03-23T07:16:30;2.30;;;2.10;;
17259;SDS011;8746;49.230;9.220;2024-03-23T07:18:55;2.13;;;1.80;;
17259;SDS011;8746;49.230;9.220;2024-03-23T07:21:21;4.37;;;2.30;;
17259;SDS011;8746;49.230;9.220;2024-03-23T07:23:47;1.93;;;1.83;;
17259;SDS011;8746;49.230;9.220;2024-03-23T07:26:12;2.43;;;2.23;;
17259;SDS011;8746;49.230;9.220;2024-03-23T07:28:38;2.10;;;2.00;;
17259;SDS011;8746;49.230;9.220;2024-03-23T07:31:08;2.20;;;2.00;;
17259;SDS011;8746;49.230;9.220;2024-03-23T07:33:35;2.00;;;1.90;;
17259;SDS011;8746;49.230;9.220;2024-03-23T07:36:01;2.47;;;1.97;;
17259;SDS011;8746;49.230;9.220;2024-03-23T07:38:28;2.00;;;1.90;;
17259;SDS011;8746;49.230;9.220;2024-03-23T07:41:09;1.80;;;1.70;;
17259;SDS011;8746;49.230;9.220;2024-03-23T07:43:36;1.90;;;1.80;;
17259;SDS011;8746;49.230;9.220;2024-03-23T07:46:02;1.83;;;1.73;;
17259;SDS011;8746;49.230;9.220;2024-03-23T07:48:29;1.70;;;1.60;;
17259;SDS011;8746;49.230;9.220;2024-03-23T07:53:26;1.10;;;1.00;;
17259;SDS011;8746;49.230;9.220;2024-03-23T07:55:54;0.90;;;0.90;;
17259;SDS011;8746;49.230;9.220;2024-03-23T07:58:23;0.90;;;0.90;;
17259;SDS011;8746;49.230;9.220;2024-03-23T08:00:48;0.80;;;0.80;;
17259;SDS011;8746;49.230;9.220;2024-03-23T08:03:13;0.90;;;0.90;;
17259;SDS011;8746;49.230;9.220;2024-03-23T08:05:39;0.70;;;0.70;;
17259;SDS011;8746;49.230;9.220;2024-03-23T08:08:04;0.70;;;0.70;;
17259;SDS011;8746;49.230;9.220;2024-03-23T08:10:30;0.80;;;0.80;;
17259;SDS011;8746;49.230;9.220;2024-03-23T08:12:55;0.80;;;0.80;;
17259;SDS011;8746;49.230;9.220;2024-03-23T08:15:20;0.70;;;0.70;;
17259;SDS011;8746;49.230;9.220;2024-03-23T08:17:45;0.97;;;0.70;;
17259;SDS011;8746;49.230;9.220;2024-03-23T08:20:11;0.70;;;0.70;;
17259;SDS011;8746;49.230;9.220;2024-03-23T08:22:37;2.07;;;0.90;;
17259;SDS011;8746;49.230;9.220;2024-03-23T08:25:02;0.80;;;0.80;;
17259;SDS011;8746;49.230;9.220;2024-03-23T08:27:27;0.60;;;0.60;;
17259;SDS011;8746;49.230;9.220;2024-03-23T08:29:53;1.07;;;0.80;;
17259;SDS011;8746;49.230;9.220;2024-03-23T08:32:18;1.40;;;0.80;;
17259;SDS011;8746;49.230;9.220;2024-03-23T08:34:43;0.97;;;0.97;;
17259;SDS011;8746;49.230;9.220;2024-03-23T08:37:09;1.80;;;1.10;;
17259;SDS011;8746;49.230;9.220;2024-03-23T08:39:34;2.13;;;1.00;;
17259;SDS011;8746;49.230;9.220;2024-03-23T08:41:59;2.60;;;1.30;;
17259;SDS011;8746;49.230;9.220;2024-03-23T08:44:25;1.47;;;1.30;;
17259;SDS011;8746;49.230;9.220;2024-03-23T08:46:50;2.20;;;1.20;;
17259;SDS011;8746;49.230;9.220;2024-03-23T08:49:15;3.27;;;1.33;;
17259;SDS011;8746;49.230;9.220;2024-03-23T08:51:41;2.23;;;1.33;;
17259;SDS011;8746;49.230;9.220;2024-03-23T08:54:06;1.37;;;1.23;;
17259;SDS011;8746;49.230;9.220;2024-03-23T08:56:31;2.47;;;1.27;;
17259;SDS011;8746;49.230;9.220;2024-03-23T08:58:57;2.73;;;1.57;;
17259;SDS011;8746;49.230;9.220;2024-03-23T09:01:22;1.30;;;1.20;;
17259;SDS011;8746;49.230;9.220;2024-03-23T09:03:48;1.17;;;1.07;;
17259;SDS011;8746;49.230;9.220;2024-03-23T09:06:14;2.00;;;1.40;;
17259;SDS011;8746;49.230;9.220;2024-03-23T09:08:40;1.83;;;1.70;;
17259;SDS011;8746;49.230;9.220;2024-03-23T09:11:12;1.60;;;1.50;;
17259;SDS011;8746;49.230;9.220;2024-03-23T09:13:38;1.47;;;1.37;;
17259;SDS011;8746;49.230;9.220;2024-03-23T09:16:05;2.97;;;1.60;;
17259;SDS011;8746;49.230;9.220;2024-03-23T09:18:32;2.23;;;1.40;;
17259;SDS011;8746;49.230;9.220;2024-03-23T09:20:58;3.00;;;1.67;;
17259;SDS011;8746;49.230;9.220;2024-03-23T09:23:24;3.07;;;1.80;;
17259;SDS011;8746;49.230;9.220;2024-03-23T09:25:49;4.10;;;2.00;;
17259;SDS011;8746;49.230;9.220;2024-03-23T09:28:15;5.40;;;1.93;;
17259;SDS011;8746;49.230;9.220;2024-03-23T09:30:40;4.27;;;1.90;;
17259;SDS011;8746;49.230;9.220;2024-03-23T09:33:11;2.50;;;2.07;;
17259;SDS011;8746;49.230;9.220;2024-03-23T09:35:38;3.70;;;2.10;;
17259;SDS011;8746;49.230;9.220;2024-03-23T09:38:04;228.37;;;10.43;;
17259;SDS011;8746;49.230;9.220;2024-03-23T09:40:29;7.93;;;2.00;;
17259;SDS011;8746;49.230;9.220;2024-03-23T09:42:55;3.23;;;2.00;;
17259;SDS011;8746;49.230;9.220;2024-03-23T09:45:21;3.70;;;2.10;;
17259;SDS011;8746;49.230;9.220;2024-03-23T09:47:47;3.90;;;2.07;;
17259;SDS011;8746;49.230;9.220;2024-03-23T09:50:13;3.10;;;2.13;;
17259;SDS011;8746;49.230;9.220;2024-03-23T09:52:39;3.10;;;1.80;;
17259;SDS011;8746;49.230;9.220;2024-03-23T09:55:06;3.40;;;2.00;;
17259;SDS011;8746;49.230;9.220;2024-03-23T09:57:33;5.43;;;2.37;;
17259;SDS011;8746;49.230;9.220;2024-03-23T09:59:58;4.50;;;2.00;;
17259;SDS011;8746;49.230;9.220;2024-03-23T10:02:24;5.90;;;2.33;;
17259;SDS011;8746;49.230;9.220;2024-03-23T10:04:50;5.27;;;2.20;;
17259;SDS011;8746;49.230;9.220;2024-03-23T10:07:18;4.80;;;2.23;;
17259;SDS011;8746;49.230;9.220;2024-03-23T10:09:45;3.07;;;1.90;;
17259;SDS011;8746;49.230;9.220;2024-03-23T10:12:12;3.60;;;2.17;;
17259;SDS011;8746;49.230;9.220;2024-03-23T10:14:41;4.80;;;2.30;;
17259;SDS011;8746;49.230;9.220;2024-03-23T10:19:40;3.67;;;2.30;;
17259;SDS011;8746;49.230;9.220;2024-03-23T10:22:07;3.27;;;2.10;;
17259;SDS011;8746;49.230;9.220;2024-03-23T10:24:34;3.03;;;1.70;;
17259;SDS011;8746;49.230;9.220;2024-03-23T10:26:59;3.73;;;2.00;;
17259;SDS011;8746;49.230;9.220;2024-03-23T10:29:25;5.30;;;2.13;;
17259;SDS011;8746;49.230;9.220;2024-03-23T10:31:52;4.03;;;2.47;;
17259;SDS011;8746;49.230;9.220;2024-03-23T10:34:24;5.47;;;2.67;;
17259;SDS011;8746;49.230;9.220;2024-03-23T10:36:52;5.97;;;2.60;;
17259;SDS011;8746;49.230;9.220;2024-03-23T10:39:19;5.77;;;2.40;;
17259;SDS011;8746;49.230;9.220;2024-03-23T10:41:47;6.80;;;2.60;;
17259;SDS011;8746;49.230;9.220;2024-03-23T10:44:16;7.30;;;2.80;;
17259;SDS011;8746;49.230;9.220;2024-03-23T10:46:44;4.30;;;2.63;;
17259;SDS011;8746;49.230;9.220;2024-03-23T10:49:10;4.73;;;2.10;;
17259;SDS011;8746;49.230;9.220;2024-03-23T10:51:35;5.67;;;2.27;;
17259;SDS011;8746;49.230;9.220;2024-03-23T10:54:03;3.27;;;2.00;;
17259;SDS011;8746;49.230;9.220;2024-03-23T10:56:30;5.50;;;2.20;;
17259;SDS011;8746;49.230;9.220;2024-03-23T10:58:59;5.63;;;2.20;;
17259;SDS011;8746;49.230;9.220;2024-03-23T11:01:28;3.80;;;2.40;;
17259;SDS011;8746;49.230;9.220;2024-03-23T11:03:53;4.00;;;2.37;;
17259;SDS011;8746;49.230;9.220;2024-03-23T11:06:37;5.77;;;2.17;;
17259;SDS011;8746;49.230;9.220;2024-03-23T11:09:38;4.00;;;2.40;;
17259;SDS011;8746;49.230;9.220;2024-03-23T11:12:02;3.97;;;2.33;;
17259;SDS011;8746;49.230;9.220;2024-03-23T11:14:54;5.20;;;2.63;;
17259;SDS011;8746;49.230;9.220;2024-03-23T11:17:22;15.97;;;7.07;;
17259;SDS011;8746;49.230;9.220;2024-03-23T11:19:58;22.00;;;11.97;;
17259;SDS011;8746;49.230;9.220;2024-03-23T11:25:02;12.30;;;6.50;;
17259;SDS011;8746;49.230;9.220;2024-03-23T11:27:28;13.33;;;9.53;;
17259;SDS011;8746;49.230;9.220;2024-03-23T11:29:53;6.87;;;2.83;;
17259;SDS011;8746;49.230;9.220;2024-03-23T11:32:18;6.00;;;2.90;;
17259;SDS011;8746;49.230;9.220;2024-03-23T11:34:44;5.83;;;2.30;;
17259;SDS011;8746;49.230;9.220;2024-03-23T11:37:09;3.37;;;1.90;;
17259;SDS011;8746;49.230;9.220;2024-03-23T11:39:34;5.03;;;2.37;;
17259;SDS011;8746;49.230;9.220;2024-03-23T11:42:00;5.40;;;2.13;;
17259;SDS011;8746;49.230;9.220;2024-03-23T11:44:26;3.90;;;2.20;;
17259;SDS011;8746;49.230;9.220;2024-03-23T11:46:52;5.10;;;2.43;;
17259;SDS011;8746;49.230;9.220;2024-03-23T11:51:49;4.13;;;2.50;;
17259;SDS011;8746;49.230;9.220;2024-03-23T11:54:15;6.27;;;2.37;;
17259;SDS011;8746;49.230;9.220;2024-03-23T11:56:53;7.07;;;2.40;;
17259;SDS011;8746;49.230;9.220;2024-03-23T11:59:39;5.37;;;2.97;;
17259;SDS011;8746;49.230;9.220;2024-03-23T12:02:09;7.23;;;2.57;;
17259;SDS011;8746;49.230;9.220;2024-03-23T12:04:39;4.27;;;2.80;;
17259;SDS011;8746;49.230;9.220;2024-03-23T12:07:18;6.23;;;2.60;;
17259;SDS011;8746;49.230;9.220;2024-03-23T12:09:45;4.90;;;2.10;;
17259;SDS011;8746;49.230;9.220;2024-03-23T12:12:18;8.00;;;4.53;;
17259;SDS011;8746;49.230;9.220;2024-03-23T12:14:44;6.30;;;3.27;;
17259;SDS011;8746;49.230;9.220;2024-03-23T12:19:36;4.60;;;2.90;;
17259;SDS011;8746;49.230;9.220;2024-03-23T12:22:03;7.10;;;3.00;;
17259;SDS011;8746;49.230;9.220;2024-03-23T12:24:29;8.37;;;3.70;;
17259;SDS011;8746;49.230;9.220;2024-03-23T12:26:55;6.00;;;3.83;;
17259;SDS011;8746;49.230;9.220;2024-03-23T12:29:20;4.80;;;2.80;;
17259;SDS011;8746;49.230;9.220;2024-03-23T12:31:45;6.17;;;2.60;;
17259;SDS011;8746;49.230;9.220;2024-03-23T12:34:10;8.00;;;3.77;;
17259;SDS011;8746;49.230;9.220;2024-03-23T12:36:36;8.43;;;3.90;;
17259;SDS011;8746;49.230;9.220;2024-03-23T12:39:01;5.67;;;2.87;;
17259;SDS011;8746;49.230;9.220;2024-03-23T12:41:27;4.90;;;2.20;;
17259;SDS011;8746;49.230;9.220;2024-03-23T12:43:52;4.80;;;2.00;;
17259;SDS011;8746;49.230;9.220;2024-03-23T12:46:17;3.70;;;2.00;;
17259;SDS011;8746;49.230;9.220;2024-03-23T12:48:44;3.97;;;1.67;;
17259;SDS011;8746;49.230;9.220;2024-03-23T12:51:10;3.63;;;2.13;;
17259;SDS011;8746;49.230;9.220;2024-03-23T12:53:35;2.97;;;1.50;;
17259;SDS011;8746;49.230;9.220;2024-03-23T12:56:00;2.13;;;1.40;;
17259;SDS011;8746;49.230;9.220;2024-03-23T12:58:26;3.03;;;1.80;;
17259;SDS011;8746;49.230;9.220;2024-03-23T13:00:52;3.90;;;1.40;;
17259;SDS011;8746;49.230;9.220;2024-03-23T13:03:17;3.77;;;1.20;;
17259;SDS011;8746;49.230;9.220;2024-03-23T13:05:42;3.73;;;1.40;;
17259;SDS011;8746;49.230;9.220;2024-03-23T13:08:08;3.73;;;1.73;;
17259;SDS011;8746;49.230;9.220;2024-03-23T13:10:33;3.00;;;1.60;;
17259;SDS011;8746;49.230;9.220;2024-03-23T13:12:58;3.70;;;1.40;;
17259;SDS011;8746;49.230;9.220;2024-03-23T13:15:24;4.53;;;1.80;;
17259;SDS011;8746;49.230;9.220;2024-03-23T13:17:49;3.50;;;1.70;;
17259;SDS011;8746;49.230;9.220;2024-03-23T13:20:15;3.43;;;1.93;;
17259;SDS011;8746;49.230;9.220;2024-03-23T13:22:41;3.20;;;2.10;;
17259;SDS011;8746;49.230;9.220;2024-03-23T13:25:07;2.30;;;1.77;;
17259;SDS011;8746;49.230;9.220;2024-03-23T13:27:32;4.03;;;2.00;;
17259;SDS011;8746;49.230;9.220;2024-03-23T13:29:58;4.80;;;2.50;;
17259;SDS011;8746;49.230;9.220;2024-03-23T13:32:23;3.03;;;2.67;;
17259;SDS011;8746;49.230;9.220;2024-03-23T13:34:48;4.53;;;2.67;;
17259;SDS011;8746;49.230;9.220;2024-03-23T13:37:15;7.53;;;3.10;;
17259;SDS011;8746;49.230;9.220;2024-03-23T13:39:41;3.73;;;2.47;;
17259;SDS011;8746;49.230;9.220;2024-03-23T13:42:07;4.90;;;2.47;;
17259;SDS011;8746;49.230;9.220;2024-03-23T13:44:34;3.70;;;2.50;;
17259;SDS011;8746;49.230;9.220;2024-03-23T13:46:59;3.80;;;2.33;;
17259;SDS011;8746;49.230;9.220;2024-03-23T13:49:30;3.43;;;2.40;;
17259;SDS011;8746;49.230;9.220;2024-03-23T13:51:57;3.83;;;2.63;;
17259;SDS011;8746;49.230;9.220;2024-03-23T13:54:23;5.87;;;2.20;;
17259;SDS011;8746;49.230;9.220;2024-03-23T13:56:51;5.83;;;2.50;;
17259;SDS011;8746;49.230;9.220;2024-03-23T13:59:17;5.10;;;2.70;;
17259;SDS011;8746;49.230;9.220;2024-03-23T14:01:43;4.67;;;2.00;;
17259;SDS011;8746;49.230;9.220;2024-03-23T14:04:10;1.93;;;1.70;;
17259;SDS011;8746;49.230;9.220;2024-03-23T14:06:36;2.53;;;1.50;;
17259;SDS011;8746;49.230;9.220;2024-03-23T14:09:01;2.50;;;1.47;;
17259;SDS011;8746;49.230;9.220;2024-03-23T14:11:28;3.47;;;1.50;;
17259;SDS011;8746;49.230;9.220;2024-03-23T14:13:54;3.83;;;1.80;;
17259;SDS011;8746;49.230;9.220;2024-03-23T14:16:19;3.43;;;1.97;;
17259;SDS011;8746;49.230;9.220;2024-03-23T14:18:46;2.73;;;1.57;;
17259;SDS011;8746;49.230;9.220;2024-03-23T14:21:12;1.60;;;1.30;;
17259;SDS011;8746;49.230;9.220;2024-03-23T14:23:37;3.00;;;1.20;;
17259;SDS011;8746;49.230;9.220;2024-03-23T14:26:12;2.90;;;1.93;;
17259;SDS011;8746;49.230;9.220;2024-03-23T14:28:37;2.73;;;1.20;;
17259;SDS011;8746;49.230;9.220;2024-03-23T14:31:03;2.83;;;1.33;;
17259;SDS011;8746;49.230;9.220;2024-03-23T14:33:34;1.23;;;0.80;;
17259;SDS011;8746;49.230;9.220;2024-03-23T14:35:59;1.00;;;0.90;;
17259;SDS011;8746;49.230;9.220;2024-03-23T14:38:24;3.17;;;1.70;;
17259;SDS011;8746;49.230;9.220;2024-03-23T14:40:53;2.93;;;1.07;;
17259;SDS011;8746;49.230;9.220;2024-03-23T14:43:18;1.10;;;1.00;;
17259;SDS011;8746;49.230;9.220;2024-03-23T14:48:31;2.90;;;1.10;;
17259;SDS011;8746;49.230;9.220;2024-03-23T14:50:58;2.47;;;1.00;;
17259;SDS011;8746;49.230;9.220;2024-03-23T14:53:24;2.83;;;1.00;;
17259;SDS011;8746;49.230;9.220;2024-03-23T14:55:50;2.53;;;1.07;;
17259;SDS011;8746;49.230;9.220;2024-03-23T14:58:15;1.30;;;0.70;;
17259;SDS011;8746;49.230;9.220;2024-03-23T15:00:41;1.30;;;1.00;;
17259;SDS011;8746;49.230;9.220;2024-03-23T15:03:06;1.57;;;1.07;;
17259;SDS011;8746;49.230;9.220;2024-03-23T15:05:31;1.50;;;0.90;;
17259;SDS011;8746;49.230;9.220;2024-03-23T15:07:57;2.63;;;1.17;;
17259;SDS011;8746;49.230;9.220;2024-03-23T15:10:23;0.97;;;0.87;;
17259;SDS011;8746;49.230;9.220;2024-03-23T15:12:48;2.57;;;1.20;;
17259;SDS011;8746;49.230;9.220;2024-03-23T15:15:14;1.00;;;0.70;;
17259;SDS011;8746;49.230;9.220;2024-03-23T15:17:40;1.10;;;0.87;;
17259;SDS011;8746;49.230;9.220;2024-03-23T15:20:09;1.87;;;0.90;;
17259;SDS011;8746;49.230;9.220;2024-03-23T15:22:36;1.67;;;0.90;;
17259;SDS011;8746;49.230;9.220;2024-03-23T15:25:02;0.90;;;0.90;;
17259;SDS011;8746;49.230;9.220;2024-03-23T15:27:27;2.47;;;0.80;;
17259;SDS011;8746;49.230;9.220;2024-03-23T15:29:53;3.23;;;1.00;;
17259;SDS011;8746;49.230;9.220;2024-03-23T15:32:18;3.00;;;1.00;;
17259;SDS011;8746;49.230;9.220;2024-03-23T15:34:44;1.77;;;0.80;;
17259;SDS011;8746;49.230;9.220;2024-03-23T15:37:10;1.97;;;0.90;;
17259;SDS011;8746;49.230;9.220;2024-03-23T15:39:35;0.70;;;0.70;;
17259;SDS011;8746;49.230;9.220;2024-03-23T15:42:00;2.90;;;0.70;;
17259;SDS011;8746;49.230;9.220;2024-03-23T15:44:26;1.90;;;1.00;;
17259;SDS011;8746;49.230;9.220;2024-03-23T15:46:51;2.67;;;0.90;;
17259;SDS011;8746;49.230;9.220;2024-03-23T15:49:16;1.53;;;0.93;;
17259;SDS011;8746;49.230;9.220;2024-03-23T15:51:42;1.50;;;1.00;;
17259;SDS011;8746;49.230;9.220;2024-03-23T15:54:09;2.43;;;0.87;;
17259;SDS011;8746;49.230;9.220;2024-03-23T15:56:34;2.67;;;0.90;;
17259;SDS011;8746;49.230;9.220;2024-03-23T15:59:00;2.70;;;0.90;;
17259;SDS011;8746;49.230;9.220;2024-03-23T16:01:31;2.17;;;0.95;;